createdAt,value
2019-05-20T00:00:42.503Z,55.91
2019-05-20T00:03:11.629Z,56.00
2019-05-20T00:05:40.849Z,56.06
2019-05-20T00:08:12.435Z,56.16
2019-05-20T00:10:41.504Z,56.20
2019-05-20T00:13:10.615Z,56.25
2019-05-20T00:15:39.726Z,56.37
2019-05-20T00:18:08.911Z,56.43
2019-05-20T00:20:38.023Z,56.54
2019-05-20T00:23:07.145Z,56.60
2019-05-20T00:25:36.186Z,56.64
2019-05-20T00:28:05.258Z,56.75
2019-05-20T00:30:34.298Z,56.85
2019-05-20T00:33:03.363Z,56.89
2019-05-20T00:35:32.462Z,56.94
2019-05-20T00:38:01.594Z,56.96
2019-05-20T00:40:30.734Z,57.02
2019-05-20T00:42:59.867Z,57.10
2019-05-20T00:45:28.945Z,57.18
2019-05-20T00:47:58.064Z,57.21
2019-05-20T00:50:27.232Z,57.23
2019-05-20T00:52:56.427Z,57.28
2019-05-20T00:55:26.601Z,57.36
2019-05-20T00:57:55.674Z,57.39
2019-05-20T01:00:24.794Z,57.46
2019-05-20T01:02:56.758Z,57.48
2019-05-20T01:05:24.676Z,57.51
2019-05-20T01:07:53.796Z,57.54
2019-05-20T01:10:22.910Z,57.62
2019-05-20T01:12:52.011Z,57.62
2019-05-20T01:15:21.132Z,57.62
2019-05-20T01:17:50.241Z,57.71
2019-05-20T01:20:19.368Z,57.74
2019-05-20T01:22:48.447Z,57.75
2019-05-20T01:25:18.052Z,57.81
2019-05-20T01:27:47.164Z,57.84
2019-05-20T01:30:16.322Z,57.94
2019-05-20T01:32:45.422Z,58.03
2019-05-20T01:35:14.573Z,58.05
2019-05-20T01:37:43.791Z,58.09
2019-05-20T01:40:13.286Z,58.19
2019-05-20T01:42:42.353Z,58.32
2019-05-20T01:45:11.966Z,58.47
2019-05-20T01:47:41.065Z,58.61
2019-05-20T01:50:10.202Z,58.68
2019-05-20T01:52:39.321Z,58.74
2019-05-20T01:55:08.408Z,58.79
2019-05-20T01:57:37.458Z,58.88
2019-05-20T02:00:07.234Z,58.91
2019-05-20T02:02:36.309Z,59.01
2019-05-20T02:05:06.689Z,59.08
2019-05-20T02:07:35.957Z,59.15
2019-05-20T02:10:05.465Z,59.16
2019-05-20T02:12:34.922Z,59.27
2019-05-20T02:15:10.394Z,59.32
2019-05-20T02:17:39.515Z,59.39
2019-05-20T02:20:09.099Z,59.40
2019-05-20T02:22:38.321Z,59.44
2019-05-20T02:25:07.514Z,59.54
2019-05-20T02:27:36.959Z,59.70
2019-05-20T02:30:09.315Z,59.80
2019-05-20T02:32:38.521Z,59.78
2019-05-20T02:35:08.211Z,59.75
2019-05-20T02:37:37.364Z,59.68
2019-05-20T02:40:06.658Z,59.55
2019-05-20T02:42:35.967Z,59.43
2019-05-20T02:45:05.509Z,59.32
2019-05-20T02:47:34.773Z,59.31
2019-05-20T02:50:03.934Z,59.21
2019-05-20T02:52:33.128Z,59.12
2019-05-20T02:55:02.363Z,58.96
2019-05-20T02:57:31.539Z,58.88
2019-05-20T03:00:00.798Z,58.76
2019-05-20T03:02:30.133Z,58.74
2019-05-20T03:04:59.320Z,58.79
2019-05-20T03:07:28.459Z,58.72
2019-05-20T03:09:57.527Z,58.71
2019-05-20T03:12:26.885Z,58.66
2019-05-20T03:14:55.986Z,58.71
2019-05-20T03:17:25.146Z,58.64
2019-05-20T03:19:54.406Z,58.64
2019-05-20T03:22:23.600Z,58.56
2019-05-20T03:24:52.780Z,58.74
2019-05-20T03:27:21.991Z,58.81
2019-05-20T03:29:51.170Z,58.94
2019-05-20T03:32:20.375Z,59.04
2019-05-20T03:34:58.924Z,59.07
2019-05-20T03:37:20.712Z,59.03
2019-05-20T03:39:49.982Z,59.07
2019-05-20T03:42:19.365Z,59.13
2019-05-20T03:44:48.711Z,59.11
2019-05-20T03:47:18.017Z,59.17
2019-05-20T03:49:47.236Z,59.17
2019-05-20T03:52:16.421Z,59.16
2019-05-20T03:54:45.699Z,59.07
2019-05-20T03:57:15.038Z,59.16
2019-05-20T03:59:44.356Z,59.25
2019-05-20T04:02:13.561Z,59.22
2019-05-20T04:04:58.921Z,59.29
2019-05-20T04:07:13.711Z,59.30
2019-05-20T04:09:42.910Z,59.35
2019-05-20T04:12:12.076Z,59.42
2019-05-20T04:14:41.381Z,59.37
2019-05-20T04:17:10.505Z,59.37
2019-05-20T04:19:39.806Z,59.40
2019-05-20T04:22:09.100Z,59.43
2019-05-20T04:24:38.242Z,59.51
2019-05-20T04:27:07.373Z,59.58
2019-05-20T04:29:36.592Z,59.59
2019-05-20T04:32:05.757Z,59.64
2019-05-20T04:34:34.960Z,59.65
2019-05-20T04:37:04.175Z,59.57
2019-05-20T04:39:33.307Z,59.59
2019-05-20T04:42:06.322Z,59.62
2019-05-20T04:44:33.818Z,59.60
2019-05-20T04:47:02.976Z,59.58
2019-05-20T04:49:33.185Z,59.52
2019-05-20T04:52:02.362Z,59.53
2019-05-20T04:54:31.589Z,59.58
2019-05-20T04:57:00.758Z,59.60
2019-05-20T04:59:31.093Z,59.69
2019-05-20T05:02:00.346Z,59.70
2019-05-20T05:04:29.611Z,59.69
2019-05-20T05:06:58.897Z,59.75
2019-05-20T05:09:28.366Z,59.71
2019-05-20T05:11:57.812Z,59.76
2019-05-20T05:14:27.083Z,59.73
2019-05-20T05:16:56.309Z,59.82
2019-05-20T05:19:25.600Z,59.84
2019-05-20T05:21:54.745Z,59.77
2019-05-20T05:24:24.218Z,59.79
2019-05-20T05:26:53.436Z,59.79
2019-05-20T05:29:22.633Z,59.79
2019-05-20T05:31:51.880Z,59.77
2019-05-20T05:34:21.334Z,59.80
2019-05-20T05:36:50.611Z,59.75
2019-05-20T05:39:19.702Z,59.75
2019-05-20T05:41:56.149Z,59.69
2019-05-20T05:44:25.410Z,59.73
2019-05-20T05:46:54.562Z,59.69
2019-05-20T05:49:24.046Z,59.71
2019-05-20T05:51:53.417Z,59.66
2019-05-20T05:54:22.714Z,59.65
2019-05-20T05:56:51.877Z,59.54
2019-05-20T05:59:21.137Z,59.45
2019-05-20T06:01:53.891Z,59.30
2019-05-20T06:04:23.655Z,59.21
2019-05-20T06:07:18.036Z,59.09
2019-05-20T06:09:47.666Z,58.94
2019-05-20T06:12:22.836Z,58.95
2019-05-20T06:14:52.135Z,58.89
2019-05-20T06:17:21.293Z,58.86
2019-05-20T06:19:50.678Z,58.87
2019-05-20T06:22:20.020Z,58.80
2019-05-20T06:24:49.328Z,58.62
2019-05-20T06:27:18.482Z,58.56
2019-05-20T06:29:47.724Z,58.52
2019-05-20T06:32:17.035Z,58.58
2019-05-20T06:34:46.590Z,58.50
2019-05-20T06:37:17.678Z,58.47
2019-05-20T06:39:46.911Z,58.42
2019-05-20T06:42:16.275Z,58.32
2019-05-20T06:44:52.967Z,58.29
2019-05-20T06:47:20.253Z,58.27
2019-05-20T06:49:49.528Z,58.06
2019-05-20T06:52:34.968Z,57.96
2019-05-20T06:54:49.891Z,57.86
2019-05-20T06:57:19.093Z,57.82
2019-05-20T06:59:48.235Z,57.93
2019-05-20T07:02:17.334Z,57.94
2019-05-20T07:04:46.479Z,57.74
2019-05-20T07:07:21.059Z,57.63
2019-05-20T07:12:14.608Z,57.44
2019-05-20T07:14:43.771Z,57.47
2019-05-20T07:17:12.833Z,57.50
2019-05-20T07:19:42.036Z,57.51
2019-05-20T07:22:11.228Z,57.49
2019-05-20T07:24:40.698Z,57.45
2019-05-20T07:27:11.044Z,57.36
2019-05-20T07:29:40.845Z,57.25
2019-05-20T07:32:10.003Z,57.19
2019-05-20T07:34:51.573Z,57.16
2019-05-20T07:37:30.582Z,57.17
2019-05-20T07:40:07.948Z,57.17
2019-05-20T07:42:37.166Z,57.09
2019-05-20T07:45:06.581Z,57.04
2019-05-20T07:47:35.635Z,56.86
2019-05-20T07:50:04.844Z,56.81
2019-05-20T07:52:33.979Z,56.67
2019-05-20T07:55:03.058Z,56.72
2019-05-20T07:57:34.988Z,56.74
2019-05-20T08:00:04.188Z,56.74
2019-05-20T08:02:33.837Z,56.71
2019-05-20T08:05:03.492Z,56.71
2019-05-20T08:07:50.496Z,56.73
2019-05-20T08:10:05.023Z,56.64
2019-05-20T08:12:34.419Z,56.39
2019-05-20T08:15:04.029Z,56.37
2019-05-20T08:17:33.753Z,56.11
2019-05-20T08:20:03.203Z,55.92
2019-05-20T08:22:32.942Z,55.67
2019-05-20T08:25:03.011Z,55.51
2019-05-20T08:27:32.276Z,55.32
2019-05-20T08:30:01.887Z,55.20
2019-05-20T08:32:32.252Z,55.10
2019-05-20T08:35:01.976Z,54.82
2019-05-20T08:37:44.784Z,54.62
2019-05-20T08:40:02.628Z,54.48
2019-05-20T08:42:31.845Z,54.39
2019-05-20T08:45:01.314Z,54.31
2019-05-20T08:47:30.786Z,54.18
2019-05-20T08:50:05.357Z,54.16
2019-05-20T08:52:33.930Z,54.18
2019-05-20T08:55:03.291Z,54.08
2019-05-20T08:57:32.576Z,54.17
2019-05-20T09:00:01.991Z,54.01
2019-05-20T09:02:31.917Z,53.63
2019-05-20T09:05:01.253Z,53.59
2019-05-20T09:07:30.542Z,53.27
2019-05-20T09:10:02.512Z,53.08
2019-05-20T09:12:31.757Z,52.93
2019-05-20T09:15:01.117Z,52.80
2019-05-20T09:17:30.416Z,52.60
2019-05-20T09:19:59.666Z,52.42
2019-05-20T09:22:28.880Z,52.31
2019-05-20T09:24:58.187Z,52.23
2019-05-20T09:27:27.372Z,52.14
2019-05-20T09:29:56.795Z,52.17
2019-05-20T09:32:26.095Z,51.81
2019-05-20T09:34:55.381Z,51.49
2019-05-20T09:37:24.490Z,50.79
2019-05-20T09:39:53.688Z,50.48
2019-05-20T09:42:22.997Z,50.07
2019-05-20T09:44:52.434Z,49.60
2019-05-20T09:47:21.731Z,49.39
2019-05-20T09:49:51.006Z,49.48
2019-05-20T09:52:20.447Z,49.45
2019-05-20T09:54:49.631Z,49.40
2019-05-20T09:57:18.813Z,49.35
2019-05-20T09:59:48.003Z,49.37
2019-05-20T10:02:17.488Z,49.45
2019-05-20T10:04:46.665Z,49.50
2019-05-20T10:07:15.851Z,49.55
2019-05-20T10:09:44.932Z,49.74
2019-05-20T10:12:14.222Z,49.96
2019-05-20T10:14:46.958Z,50.06
2019-05-20T10:17:37.424Z,50.01
2019-05-20T10:20:07.059Z,50.05
2019-05-20T10:22:39.215Z,50.07
2019-05-20T10:25:08.377Z,50.27
2019-05-20T10:27:37.475Z,50.45
2019-05-20T10:30:06.843Z,50.52
2019-05-20T10:32:36.055Z,50.74
2019-05-20T10:35:05.239Z,50.80
2019-05-20T10:37:34.549Z,50.81
2019-05-20T10:40:03.683Z,51.02
2019-05-20T10:42:32.790Z,51.07
2019-05-20T10:45:02.122Z,51.11
2019-05-20T10:47:42.933Z,51.01
2019-05-20T10:50:30.781Z,51.10
2019-05-20T10:56:30.729Z,50.91
2019-05-20T10:59:33.866Z,50.86
2019-05-20T11:02:01.009Z,50.84
2019-05-20T11:04:30.199Z,50.72
2019-05-20T11:06:59.558Z,50.44
2019-05-20T11:09:36.918Z,50.27
2019-05-20T11:15:09.619Z,50.20
2019-05-20T11:17:38.836Z,50.14
2019-05-20T11:20:11.136Z,50.11
2019-05-20T11:22:40.321Z,50.13
2019-05-20T11:25:09.684Z,50.28
2019-05-20T11:27:39.043Z,49.99
2019-05-20T11:30:11.953Z,49.69
2019-05-20T11:32:41.094Z,49.64
2019-05-20T11:35:10.244Z,49.30
2019-05-20T11:37:39.353Z,49.25
2019-05-20T11:40:09.854Z,49.18
2019-05-20T11:42:43.576Z,49.13
2019-05-20T11:45:14.799Z,49.01
2019-05-20T11:47:44.266Z,49.09
2019-05-20T11:50:14.255Z,49.08
2019-05-20T11:52:43.373Z,49.22
2019-05-20T11:55:12.467Z,49.28
2019-05-20T11:57:41.852Z,49.30
2019-05-20T12:00:11.253Z,49.24
2019-05-20T12:02:40.359Z,49.35
2019-05-20T12:05:09.621Z,49.35
2019-05-20T12:07:41.314Z,49.38
2019-05-20T12:10:11.769Z,49.44
2019-05-20T12:12:40.842Z,49.32
2019-05-20T12:15:13.092Z,49.48
2019-05-20T12:17:42.167Z,49.44
2019-05-20T12:20:12.747Z,49.32
2019-05-20T12:22:42.167Z,49.44
2019-05-20T12:25:11.200Z,49.63
2019-05-20T12:27:40.367Z,49.56
2019-05-20T12:30:09.661Z,49.54
2019-05-20T12:32:38.986Z,49.53
2019-05-20T12:35:09.105Z,49.53
2019-05-20T12:37:38.768Z,49.55
2019-05-20T12:40:18.133Z,49.53
2019-05-20T12:42:47.745Z,49.55
2019-05-20T12:45:17.662Z,49.58
2019-05-20T12:47:46.779Z,49.58
2019-05-20T12:50:16.118Z,49.67
2019-05-20T12:52:45.210Z,49.65
2019-05-20T12:55:14.563Z,49.69
2019-05-20T12:57:43.632Z,49.77
2019-05-20T13:00:12.727Z,49.81
2019-05-20T13:02:41.998Z,49.79
2019-05-20T13:05:11.537Z,49.84
2019-05-20T13:07:40.692Z,49.89
2019-05-20T13:10:26.539Z,49.85
2019-05-20T13:12:40.648Z,49.80
2019-05-20T13:15:09.795Z,49.80
2019-05-20T13:17:43.814Z,49.75
2019-05-20T13:20:09.887Z,49.88
2019-05-20T13:22:38.996Z,49.82
2019-05-20T13:25:10.999Z,49.78
2019-05-20T13:27:40.072Z,49.79
2019-05-20T13:30:09.443Z,49.77
2019-05-20T13:32:38.591Z,49.91
2019-05-20T13:35:07.734Z,49.91
2019-05-20T13:37:36.836Z,50.03
2019-05-20T13:40:06.224Z,49.95
2019-05-20T13:42:35.291Z,50.05
2019-05-20T13:45:04.442Z,50.16
2019-05-20T13:47:33.549Z,50.11
2019-05-20T13:50:02.691Z,50.16
2019-05-20T13:52:31.825Z,49.91
2019-05-20T13:55:01.034Z,49.90
2019-05-20T13:57:30.210Z,49.99
2019-05-20T13:59:59.467Z,50.00
2019-05-20T14:02:28.571Z,49.98
2019-05-20T14:04:57.686Z,50.07
2019-05-20T14:07:26.875Z,50.26
2019-05-20T14:09:56.033Z,50.42
2019-05-20T14:12:25.120Z,50.46
2019-05-20T14:14:54.226Z,50.49
2019-05-20T14:17:23.262Z,50.53
2019-05-20T14:19:52.384Z,50.55
2019-05-20T14:22:21.463Z,50.58
2019-05-20T14:24:50.866Z,50.73
2019-05-20T14:27:19.998Z,50.82
2019-05-20T14:29:49.094Z,50.74
2019-05-20T14:32:18.262Z,50.77
2019-05-20T14:34:47.463Z,50.78
2019-05-20T14:37:16.587Z,50.76
2019-05-20T14:39:45.820Z,50.73
2019-05-20T14:42:15.117Z,50.78
2019-05-20T14:44:44.340Z,50.73
2019-05-20T14:47:13.358Z,50.76
2019-05-20T14:49:42.460Z,50.67
2019-05-20T14:52:11.503Z,50.67
2019-05-20T14:54:40.555Z,50.59
2019-05-20T14:57:09.953Z,50.68
2019-05-20T14:59:39.070Z,50.66
2019-05-20T15:02:08.174Z,50.65
2019-05-20T15:04:37.318Z,50.61
2019-05-20T15:07:06.474Z,50.50
2019-05-20T15:09:35.597Z,50.32
2019-05-20T15:12:04.735Z,50.23
2019-05-20T15:14:34.106Z,50.23
2019-05-20T15:17:03.237Z,50.34
2019-05-20T15:19:32.349Z,50.34
2019-05-20T15:22:01.469Z,50.37
2019-05-20T15:24:30.641Z,50.38
2019-05-20T15:26:59.830Z,50.50
2019-05-20T15:29:29.083Z,50.67
2019-05-20T15:31:58.359Z,50.70
2019-05-20T15:34:27.451Z,50.79
2019-05-20T15:36:56.583Z,50.77
2019-05-20T15:39:26.023Z,50.89
2019-05-20T15:41:55.162Z,51.10
2019-05-20T15:44:24.181Z,51.15
2019-05-20T15:46:53.339Z,51.14
2019-05-20T15:49:23.089Z,51.20
2019-05-20T15:51:52.224Z,51.14
2019-05-20T15:54:21.521Z,51.15
2019-05-20T15:56:50.580Z,51.20
2019-05-20T15:59:19.806Z,51.08
2019-05-20T16:01:53.851Z,50.95
2019-05-20T16:04:22.571Z,50.88
2019-05-20T16:06:51.701Z,50.78
2019-05-20T16:09:20.864Z,50.70
2019-05-20T16:11:50.068Z,50.66
2019-05-20T16:14:19.382Z,50.61
2019-05-20T16:16:48.560Z,50.59
2019-05-20T16:19:17.703Z,50.62
2019-05-20T16:21:47.977Z,50.58
2019-05-20T16:24:17.918Z,50.63
2019-05-20T16:26:47.398Z,50.82
2019-05-20T16:29:16.524Z,50.91
2019-05-20T16:31:45.750Z,51.01
2019-05-20T16:34:14.906Z,51.02
2019-05-20T16:36:43.971Z,51.25
2019-05-20T16:39:13.107Z,51.43
2019-05-20T16:41:42.240Z,51.46
2019-05-20T16:44:11.387Z,51.65
2019-05-20T16:46:40.487Z,51.71
2019-05-20T16:49:09.594Z,51.89
2019-05-20T16:51:38.687Z,52.03
2019-05-20T16:54:07.819Z,52.06
2019-05-20T16:56:36.869Z,52.15
2019-05-20T16:59:05.949Z,52.14
2019-05-20T17:01:45.967Z,52.16
2019-05-20T17:04:05.903Z,52.31
2019-05-20T17:06:35.028Z,52.37
2019-05-20T17:09:04.581Z,52.43
2019-05-20T17:11:33.717Z,52.56
2019-05-20T17:14:03.066Z,52.69
2019-05-20T17:16:32.368Z,52.77
2019-05-20T17:19:01.619Z,52.88
2019-05-20T17:21:31.196Z,52.98
2019-05-20T17:24:01.597Z,53.08
2019-05-20T17:26:30.826Z,53.12
2019-05-20T17:29:00.129Z,53.19
2019-05-20T17:31:30.963Z,53.18
2019-05-20T17:34:00.190Z,53.33
2019-05-20T17:36:29.296Z,53.38
2019-05-20T17:38:58.782Z,53.37
2019-05-20T17:41:27.920Z,53.43
2019-05-20T17:43:57.089Z,53.44
2019-05-20T17:46:26.382Z,53.43
2019-05-20T17:48:55.527Z,53.43
2019-05-20T17:51:24.659Z,53.42
2019-05-20T17:53:53.799Z,53.40
2019-05-20T17:56:22.994Z,53.37
2019-05-20T17:58:52.119Z,53.40
2019-05-20T18:01:21.359Z,53.39
2019-05-20T18:06:51.489Z,53.50
2019-05-20T18:09:21.311Z,53.45
2019-05-20T18:11:53.237Z,53.50
2019-05-20T18:14:22.713Z,53.55
2019-05-20T18:16:52.189Z,53.64
2019-05-20T18:19:22.076Z,53.62
2019-05-20T18:21:51.688Z,53.66
2019-05-20T18:24:20.804Z,53.71
2019-05-20T18:26:49.971Z,53.68
2019-05-20T18:29:19.178Z,53.66
2019-05-20T18:31:48.339Z,53.68
2019-05-20T18:34:17.485Z,53.72
2019-05-20T18:36:46.714Z,53.83
2019-05-20T18:39:15.937Z,53.93
2019-05-20T18:41:46.093Z,54.04
2019-05-20T18:44:15.230Z,54.11
2019-05-20T18:46:44.461Z,54.11
2019-05-20T18:49:14.900Z,54.21
2019-05-20T18:51:44.461Z,54.20
2019-05-20T18:54:55.005Z,54.23
2019-05-20T19:00:31.295Z,54.38
2019-05-20T19:03:09.509Z,54.46
2019-05-20T19:05:38.961Z,54.55
2019-05-20T19:08:08.428Z,54.59
2019-05-20T19:10:37.925Z,54.60
2019-05-20T19:13:07.270Z,54.61
2019-05-20T19:15:36.561Z,54.68
2019-05-20T19:18:05.754Z,54.76
2019-05-20T19:20:34.952Z,54.75
2019-05-20T19:23:04.123Z,54.71
2019-05-20T19:25:37.725Z,54.70
2019-05-20T19:28:04.255Z,54.75
2019-05-20T19:30:33.604Z,54.78
2019-05-20T19:33:02.678Z,54.81
2019-05-20T19:35:31.824Z,54.87
2019-05-20T19:38:00.931Z,54.91
2019-05-20T19:40:30.016Z,54.92
2019-05-20T19:42:59.264Z,54.95
2019-05-20T19:45:28.422Z,54.93
2019-05-20T19:47:57.537Z,54.96
2019-05-20T19:50:26.717Z,55.03
2019-05-20T19:52:55.959Z,55.09
2019-05-20T19:55:25.152Z,55.10
2019-05-20T19:57:54.238Z,55.13
2019-05-20T20:00:23.387Z,55.12
2019-05-20T20:02:52.451Z,55.19
2019-05-20T20:05:21.548Z,55.23
2019-05-20T20:07:50.643Z,55.29
2019-05-20T20:10:19.875Z,55.28
2019-05-20T20:12:48.956Z,55.42
2019-05-20T20:15:19.021Z,55.48
2019-05-20T20:17:48.069Z,55.51
2019-05-20T20:20:17.168Z,55.56
2019-05-20T20:22:46.225Z,55.60
2019-05-20T20:25:15.343Z,55.72
2019-05-20T20:27:44.449Z,55.79
2019-05-20T20:30:13.550Z,55.80
2019-05-20T20:32:42.607Z,55.81
2019-05-20T20:35:11.718Z,55.85
2019-05-20T20:37:40.747Z,55.91
2019-05-20T20:40:09.819Z,55.96
2019-05-20T20:42:38.913Z,56.04
2019-05-20T20:45:08.015Z,56.09
2019-05-20T20:47:41.725Z,56.10
2019-05-20T20:50:08.004Z,56.18
2019-05-20T20:52:37.151Z,56.31
2019-05-20T20:55:06.334Z,56.39
2019-05-20T20:57:35.565Z,56.48
2019-05-20T21:00:05.435Z,56.54
2019-05-20T21:02:34.504Z,56.67
2019-05-20T21:05:03.605Z,56.73
2019-05-20T21:07:32.775Z,56.82
2019-05-20T21:10:01.862Z,56.92
2019-05-20T21:12:30.947Z,57.04
2019-05-20T21:15:00.028Z,57.14
2019-05-20T21:17:29.096Z,57.33
2019-05-20T21:19:58.252Z,57.42
2019-05-20T21:22:27.352Z,57.56
2019-05-20T21:24:56.368Z,57.59
2019-05-20T21:27:25.518Z,57.69
2019-05-20T21:29:54.608Z,57.75
2019-05-20T21:32:23.681Z,57.81
2019-05-20T21:34:52.756Z,57.89
2019-05-20T21:37:21.958Z,57.95
2019-05-20T21:39:50.978Z,58.03
2019-05-20T21:42:20.092Z,58.08
2019-05-20T21:44:49.184Z,58.14
2019-05-20T21:47:18.268Z,58.21
2019-05-20T21:49:47.460Z,58.25
2019-05-20T21:52:16.557Z,58.28
2019-05-20T21:54:45.642Z,58.31
2019-05-20T21:57:14.730Z,58.32
2019-05-20T21:59:43.829Z,58.34
2019-05-20T22:02:12.911Z,58.41
2019-05-20T22:04:41.982Z,58.44
2019-05-20T22:07:11.087Z,58.46
2019-05-20T22:09:40.141Z,58.61
2019-05-20T22:12:22.618Z,58.75
2019-05-20T22:14:52.125Z,58.81
2019-05-20T22:17:21.227Z,58.89
2019-05-20T22:19:50.311Z,59.08
2019-05-20T22:22:28.604Z,59.14
2019-05-20T22:24:57.705Z,59.16
2019-05-20T22:27:26.819Z,59.16
2019-05-20T22:29:55.845Z,59.18
2019-05-20T22:32:25.000Z,59.16
2019-05-20T22:34:54.158Z,59.03
2019-05-20T22:37:23.248Z,59.06
2019-05-20T22:39:52.326Z,59.05
2019-05-20T22:42:21.406Z,59.00
2019-05-20T22:44:50.475Z,59.01
2019-05-20T22:47:19.643Z,59.07
2019-05-20T22:49:48.731Z,59.05
2019-05-20T22:52:17.806Z,59.01
2019-05-20T22:54:46.888Z,58.98
2019-05-20T22:57:15.939Z,58.87
2019-05-20T22:59:45.061Z,58.85
2019-05-20T23:02:14.183Z,58.75
2019-05-20T23:04:44.090Z,58.73
2019-05-20T23:07:13.151Z,58.69
2019-05-20T23:09:42.326Z,58.70
2019-05-20T23:12:11.384Z,58.64
2019-05-20T23:14:40.544Z,58.65
2019-05-20T23:17:09.591Z,58.72
2019-05-20T23:19:38.692Z,58.71
2019-05-20T23:22:07.759Z,58.60
2019-05-20T23:24:36.832Z,58.64
2019-05-20T23:27:05.927Z,58.49
2019-05-20T23:29:35.020Z,58.62
2019-05-20T23:32:04.107Z,58.59
2019-05-20T23:34:33.213Z,58.64
2019-05-20T23:37:02.292Z,58.65
2019-05-20T23:39:31.385Z,58.70
2019-05-20T23:42:00.459Z,58.81
2019-05-20T23:44:29.533Z,59.01
2019-05-20T23:46:58.570Z,59.12
2019-05-20T23:49:27.659Z,59.24
2019-05-20T23:51:56.719Z,59.40
2019-05-20T23:54:25.799Z,59.56
2019-05-20T23:56:54.913Z,59.59
2019-05-20T23:59:23.989Z,59.73
